sensor_id;sensor_type;location;lat;lon;timestamp;pressure;altitude;pressure_sealevel;temperature;humidity
76868;BME280;66168;45.478;11.060;2023-02-13T00:00:15;102875.48;;;8.59;45.87
76868;BME280;66168;45.478;11.060;2023-02-13T00:02:42;102877.54;;;8.57;46.00
76868;BME280;66168;45.478;11.060;2023-02-13T00:05:09;102875.86;;;8.56;45.93
76868;BME280;66168;45.478;11.060;2023-02-13T00:07:35;102878.18;;;8.55;45.88
76868;BME280;66168;45.478;11.060;2023-02-13T00:10:02;102877.49;;;8.55;46.02
76868;BME280;66168;45.478;11.060;2023-02-13T00:12:29;102875.55;;;8.55;46.00
76868;BME280;66168;45.478;11.060;2023-02-13T00:14:56;102876.62;;;8.55;45.93
76868;BME280;66168;45.478;11.060;2023-02-13T00:17:22;102874.14;;;8.55;46.02
76868;BME280;66168;45.478;11.060;2023-02-13T00:19:50;102877.53;;;8.55;46.16
76868;BME280;66168;45.478;11.060;2023-02-13T00:22:17;102876.52;;;8.54;46.15
76868;BME280;66168;45.478;11.060;2023-02-13T00:24:44;102877.98;;;8.53;45.99
76868;BME280;66168;45.478;11.060;2023-02-13T00:27:11;102879.89;;;8.51;46.14
76868;BME280;66168;45.478;11.060;2023-02-13T00:29:37;102878.14;;;8.51;46.19
76868;BME280;66168;45.478;11.060;2023-02-13T00:32:04;102879.82;;;8.50;46.11
76868;BME280;66168;45.478;11.060;2023-02-13T00:34:32;102881.99;;;8.49;46.22
76868;BME280;66168;45.478;11.060;2023-02-13T00:37:01;102884.20;;;8.48;46.13
76868;BME280;66168;45.478;11.060;2023-02-13T00:39:28;102883.55;;;8.47;46.20
76868;BME280;66168;45.478;11.060;2023-02-13T00:41:55;102886.24;;;8.46;46.40
76868;BME280;66168;45.478;11.060;2023-02-13T00:44:22;102891.80;;;8.45;46.31
76868;BME280;66168;45.478;11.060;2023-02-13T00:46:48;102891.88;;;8.44;46.27
76868;BME280;66168;45.478;11.060;2023-02-13T00:49:15;102890.14;;;8.43;46.39
76868;BME280;66168;45.478;11.060;2023-02-13T00:51:42;102893.02;;;8.43;46.42
76868;BME280;66168;45.478;11.060;2023-02-13T00:54:09;102893.52;;;8.43;46.54
76868;BME280;66168;45.478;11.060;2023-02-13T00:56:35;102893.71;;;8.43;46.55
76868;BME280;66168;45.478;11.060;2023-02-13T00:59:04;102891.97;;;8.43;46.70
76868;BME280;66168;45.478;11.060;2023-02-13T01:01:30;102893.07;;;8.42;46.69
76868;BME280;66168;45.478;11.060;2023-02-13T01:03:58;102894.49;;;8.42;46.82
76868;BME280;66168;45.478;11.060;2023-02-13T01:06:26;102897.15;;;8.42;46.83
76868;BME280;66168;45.478;11.060;2023-02-13T01:08:53;102893.33;;;8.41;46.82
76868;BME280;66168;45.478;11.060;2023-02-13T01:11:19;102894.99;;;8.40;46.89
76868;BME280;66168;45.478;11.060;2023-02-13T01:13:46;102895.94;;;8.39;47.00
76868;BME280;66168;45.478;11.060;2023-02-13T01:16:13;102898.50;;;8.38;46.99
76868;BME280;66168;45.478;11.060;2023-02-13T01:18:41;102900.45;;;8.37;47.12
76868;BME280;66168;45.478;11.060;2023-02-13T01:21:15;102897.68;;;8.37;47.14
76868;BME280;66168;45.478;11.060;2023-02-13T01:23:43;102892.27;;;8.36;47.17
76868;BME280;66168;45.478;11.060;2023-02-13T01:26:15;102896.31;;;8.36;47.06
76868;BME280;66168;45.478;11.060;2023-02-13T01:28:43;102896.75;;;8.35;47.14
76868;BME280;66168;45.478;11.060;2023-02-13T01:31:09;102900.04;;;8.33;47.16
76868;BME280;66168;45.478;11.060;2023-02-13T01:33:36;102896.48;;;8.31;47.13
76868;BME280;66168;45.478;11.060;2023-02-13T01:36:11;102897.29;;;8.30;47.20
76868;BME280;66168;45.478;11.060;2023-02-13T01:38:40;102898.23;;;8.29;47.32
76868;BME280;66168;45.478;11.060;2023-02-13T01:41:08;102897.95;;;8.28;47.37
76868;BME280;66168;45.478;11.060;2023-02-13T01:46:11;102893.80;;;8.26;47.45
76868;BME280;66168;45.478;11.060;2023-02-13T01:48:38;102890.79;;;8.26;47.43
76868;BME280;66168;45.478;11.060;2023-02-13T01:51:12;102891.55;;;8.25;47.48
76868;BME280;66168;45.478;11.060;2023-02-13T01:53:44;102890.73;;;8.25;47.55
76868;BME280;66168;45.478;11.060;2023-02-13T01:56:19;102889.77;;;8.23;47.54
76868;BME280;66168;45.478;11.060;2023-02-13T01:58:49;102888.23;;;8.23;47.63
76868;BME280;66168;45.478;11.060;2023-02-13T02:01:20;102886.51;;;8.22;47.81
76868;BME280;66168;45.478;11.060;2023-02-13T02:03:57;102881.80;;;8.21;47.85
76868;BME280;66168;45.478;11.060;2023-02-13T02:06:32;102878.84;;;8.20;48.02
76868;BME280;66168;45.478;11.060;2023-02-13T02:09:05;102881.17;;;8.20;48.06
76868;BME280;66168;45.478;11.060;2023-02-13T02:11:51;102879.86;;;8.18;48.12
76868;BME280;66168;45.478;11.060;2023-02-13T02:14:22;102876.13;;;8.19;48.08
76868;BME280;66168;45.478;11.060;2023-02-13T02:16:49;102874.02;;;8.19;48.20
76868;BME280;66168;45.478;11.060;2023-02-13T02:22:50;102874.36;;;8.19;48.44
76868;BME280;66168;45.478;11.060;2023-02-13T02:26:01;102873.73;;;8.18;48.90
76868;BME280;66168;45.478;11.060;2023-02-13T02:38:58;102862.48;;;8.14;48.85
76868;BME280;66168;45.478;11.060;2023-02-13T02:41:58;102861.34;;;8.13;48.98
76868;BME280;66168;45.478;11.060;2023-02-13T02:44:50;102863.67;;;8.13;49.00
76868;BME280;66168;45.478;11.060;2023-02-13T02:47:45;102861.04;;;8.12;49.14
76868;BME280;66168;45.478;11.060;2023-02-13T02:50:40;102854.41;;;8.11;49.30
76868;BME280;66168;45.478;11.060;2023-02-13T02:53:52;102851.63;;;8.10;49.29
76868;BME280;66168;45.478;11.060;2023-02-13T02:56:06;102849.46;;;8.09;49.17
76868;BME280;66168;45.478;11.060;2023-02-13T02:59:02;102851.21;;;8.09;49.19
76868;BME280;66168;45.478;11.060;2023-02-13T03:01:50;102848.53;;;8.09;49.24
76868;BME280;66168;45.478;11.060;2023-02-13T03:04:41;102847.52;;;8.09;49.08
76868;BME280;66168;45.478;11.060;2023-02-13T03:07:28;102849.35;;;8.08;49.04
76868;BME280;66168;45.478;11.060;2023-02-13T03:09:56;102849.11;;;8.06;49.05
76868;BME280;66168;45.478;11.060;2023-02-13T03:12:53;102846.65;;;8.06;48.89
76868;BME280;66168;45.478;11.060;2023-02-13T03:15:41;102846.36;;;8.05;48.89
76868;BME280;66168;45.478;11.060;2023-02-13T03:18:30;102846.82;;;8.04;48.88
76868;BME280;66168;45.478;11.060;2023-02-13T03:21:58;102849.55;;;8.02;48.97
76868;BME280;66168;45.478;11.060;2023-02-13T03:34:13;102843.96;;;7.96;49.31
76868;BME280;66168;45.478;11.060;2023-02-13T03:39:52;102848.64;;;7.95;48.82
76868;BME280;66168;45.478;11.060;2023-02-13T03:45:01;102847.46;;;7.94;49.02
76868;BME280;66168;45.478;11.060;2023-02-13T03:47:52;102848.55;;;7.93;48.99
76868;BME280;66168;45.478;11.060;2023-02-13T03:50:22;102847.40;;;7.92;48.86
76868;BME280;66168;45.478;11.060;2023-02-13T03:55:32;102849.85;;;7.90;48.79
76868;BME280;66168;45.478;11.060;2023-02-13T03:58:31;102851.54;;;7.89;48.88
76868;BME280;66168;45.478;11.060;2023-02-13T04:01:22;102846.15;;;7.87;48.87
76868;BME280;66168;45.478;11.060;2023-02-13T04:04:06;102847.83;;;7.86;48.87
76868;BME280;66168;45.478;11.060;2023-02-13T04:06:45;102854.45;;;7.85;48.89
76868;BME280;66168;45.478;11.060;2023-02-13T04:09:14;102855.51;;;7.82;48.98
76868;BME280;66168;45.478;11.060;2023-02-13T04:12:04;102851.42;;;7.80;49.10
76868;BME280;66168;45.478;11.060;2023-02-13T04:14:53;102850.77;;;7.77;49.13
76868;BME280;66168;45.478;11.060;2023-02-13T04:17:32;102853.92;;;7.74;49.22
76868;BME280;66168;45.478;11.060;2023-02-13T04:20:01;102853.65;;;7.73;49.05
76868;BME280;66168;45.478;11.060;2023-02-13T04:22:28;102854.88;;;7.71;49.06
76868;BME280;66168;45.478;11.060;2023-02-13T04:24:54;102857.92;;;7.68;49.02
76868;BME280;66168;45.478;11.060;2023-02-13T04:27:24;102859.00;;;7.65;49.20
76868;BME280;66168;45.478;11.060;2023-02-13T04:29:53;102854.50;;;7.61;49.25
76868;BME280;66168;45.478;11.060;2023-02-13T04:32:20;102854.85;;;7.58;49.21
76868;BME280;66168;45.478;11.060;2023-02-13T04:34:46;102857.88;;;7.55;49.33
76868;BME280;66168;45.478;11.060;2023-02-13T04:37:13;102862.93;;;7.54;49.36
76868;BME280;66168;45.478;11.060;2023-02-13T04:39:39;102858.48;;;7.52;49.30
76868;BME280;66168;45.478;11.060;2023-02-13T04:42:06;102857.20;;;7.50;49.35
76868;BME280;66168;45.478;11.060;2023-02-13T04:44:33;102858.51;;;7.49;49.39
76868;BME280;66168;45.478;11.060;2023-02-13T04:46:59;102858.02;;;7.48;49.37
76868;BME280;66168;45.478;11.060;2023-02-13T04:49:26;102858.27;;;7.47;49.39
76868;BME280;66168;45.478;11.060;2023-02-13T04:51:53;102859.16;;;7.47;49.41
76868;BME280;66168;45.478;11.060;2023-02-13T04:54:19;102855.80;;;7.47;49.35
76868;BME280;66168;45.478;11.060;2023-02-13T04:56:46;102852.41;;;7.48;49.41
76868;BME280;66168;45.478;11.060;2023-02-13T04:59:13;102856.95;;;7.49;49.56
76868;BME280;66168;45.478;11.060;2023-02-13T05:01:40;102860.45;;;7.49;49.56
76868;BME280;66168;45.478;11.060;2023-02-13T05:04:06;102861.16;;;7.49;49.46
76868;BME280;66168;45.478;11.060;2023-02-13T05:06:33;102859.73;;;7.49;49.46
76868;BME280;66168;45.478;11.060;2023-02-13T05:09:00;102856.02;;;7.49;49.45
76868;BME280;66168;45.478;11.060;2023-02-13T05:11:26;102863.73;;;7.50;49.51
76868;BME280;66168;45.478;11.060;2023-02-13T05:13:53;102868.12;;;7.50;49.52
76868;BME280;66168;45.478;11.060;2023-02-13T05:16:20;102867.20;;;7.51;49.60
76868;BME280;66168;45.478;11.060;2023-02-13T05:18:47;102865.71;;;7.52;49.68
76868;BME280;66168;45.478;11.060;2023-02-13T05:21:13;102869.04;;;7.52;49.74
76868;BME280;66168;45.478;11.060;2023-02-13T05:23:59;102867.27;;;7.52;49.83
76868;BME280;66168;45.478;11.060;2023-02-13T05:26:26;102867.61;;;7.52;49.96
76868;BME280;66168;45.478;11.060;2023-02-13T05:28:53;102868.88;;;7.52;49.89
76868;BME280;66168;45.478;11.060;2023-02-13T05:31:39;102873.11;;;7.52;49.83
76868;BME280;66168;45.478;11.060;2023-02-13T05:34:05;102878.36;;;7.53;49.76
76868;BME280;66168;45.478;11.060;2023-02-13T05:36:32;102876.23;;;7.53;49.62
76868;BME280;66168;45.478;11.060;2023-02-13T05:38:59;102871.69;;;7.52;49.62
76868;BME280;66168;45.478;11.060;2023-02-13T05:41:26;102873.79;;;7.53;49.69
76868;BME280;66168;45.478;11.060;2023-02-13T05:43:52;102876.59;;;7.53;49.74
76868;BME280;66168;45.478;11.060;2023-02-13T05:46:19;102880.07;;;7.54;49.76
76868;BME280;66168;45.478;11.060;2023-02-13T05:48:46;102877.82;;;7.53;49.74
76868;BME280;66168;45.478;11.060;2023-02-13T05:51:12;102876.25;;;7.53;49.73
76868;BME280;66168;45.478;11.060;2023-02-13T05:53:39;102876.45;;;7.52;49.71
76868;BME280;66168;45.478;11.060;2023-02-13T05:56:05;102878.02;;;7.52;49.91
76868;BME280;66168;45.478;11.060;2023-02-13T05:58:33;102883.53;;;7.52;49.94
76868;BME280;66168;45.478;11.060;2023-02-13T06:01:00;102881.81;;;7.51;50.01
76868;BME280;66168;45.478;11.060;2023-02-13T06:03:28;102879.70;;;7.51;50.13
76868;BME280;66168;45.478;11.060;2023-02-13T06:05:56;102881.52;;;7.51;50.09
76868;BME280;66168;45.478;11.060;2023-02-13T06:08:24;102888.02;;;7.51;50.04
76868;BME280;66168;45.478;11.060;2023-02-13T06:10:51;102892.20;;;7.49;50.37
76868;BME280;66168;45.478;11.060;2023-02-13T06:13:18;102894.84;;;7.44;50.39
76868;BME280;66168;45.478;11.060;2023-02-13T06:15:45;102898.80;;;7.37;50.33
76868;BME280;66168;45.478;11.060;2023-02-13T06:18:11;102900.34;;;7.24;50.57
76868;BME280;66168;45.478;11.060;2023-02-13T06:20:38;102905.65;;;7.13;50.60
76868;BME280;66168;45.478;11.060;2023-02-13T06:23:04;102913.52;;;6.98;50.91
76868;BME280;66168;45.478;11.060;2023-02-13T06:25:34;102917.02;;;6.70;51.40
76868;BME280;66168;45.478;11.060;2023-02-13T06:28:02;102921.38;;;6.55;51.78
76868;BME280;66168;45.478;11.060;2023-02-13T06:30:29;102920.10;;;6.47;52.04
76868;BME280;66168;45.478;11.060;2023-02-13T06:32:56;102923.06;;;6.41;52.27
76868;BME280;66168;45.478;11.060;2023-02-13T06:35:23;102932.20;;;6.36;52.35
76868;BME280;66168;45.478;11.060;2023-02-13T06:37:50;102932.93;;;6.20;52.42
76868;BME280;66168;45.478;11.060;2023-02-13T06:40:16;102935.82;;;6.05;52.91
76868;BME280;66168;45.478;11.060;2023-02-13T06:42:44;102939.40;;;5.99;53.26
76868;BME280;66168;45.478;11.060;2023-02-13T06:45:11;102938.86;;;5.93;53.84
76868;BME280;66168;45.478;11.060;2023-02-13T06:47:43;102934.69;;;5.89;53.79
76868;BME280;66168;45.478;11.060;2023-02-13T06:50:11;102942.85;;;5.84;54.33
76868;BME280;66168;45.478;11.060;2023-02-13T06:52:38;102944.45;;;5.80;54.08
76868;BME280;66168;45.478;11.060;2023-02-13T06:55:05;102942.73;;;5.77;54.25
76868;BME280;66168;45.478;11.060;2023-02-13T06:57:31;102947.31;;;5.74;54.45
76868;BME280;66168;45.478;11.060;2023-02-13T06:59:59;102944.80;;;5.72;54.65
76868;BME280;66168;45.478;11.060;2023-02-13T07:02:29;102941.16;;;5.71;54.95
76868;BME280;66168;45.478;11.060;2023-02-13T07:04:56;102940.95;;;5.68;54.99
76868;BME280;66168;45.478;11.060;2023-02-13T07:07:22;102946.81;;;5.64;55.00
76868;BME280;66168;45.478;11.060;2023-02-13T07:09:49;102948.68;;;5.62;55.21
76868;BME280;66168;45.478;11.060;2023-02-13T07:12:16;102947.57;;;5.63;55.19
76868;BME280;66168;45.478;11.060;2023-02-13T07:14:42;102943.82;;;5.64;55.37
76868;BME280;66168;45.478;11.060;2023-02-13T07:17:09;102944.84;;;5.65;55.57
76868;BME280;66168;45.478;11.060;2023-02-13T07:19:38;102950.86;;;5.67;55.57
76868;BME280;66168;45.478;11.060;2023-02-13T07:22:05;102955.65;;;5.70;55.65
76868;BME280;66168;45.478;11.060;2023-02-13T07:24:32;102954.51;;;5.68;55.92
76868;BME280;66168;45.478;11.060;2023-02-13T07:27:00;102957.13;;;5.66;55.89
76868;BME280;66168;45.478;11.060;2023-02-13T07:29:27;102960.34;;;5.68;55.99
76868;BME280;66168;45.478;11.060;2023-02-13T07:31:54;102962.48;;;5.73;55.90
76868;BME280;66168;45.478;11.060;2023-02-13T07:34:20;102962.14;;;5.82;55.90
76868;BME280;66168;45.478;11.060;2023-02-13T07:36:47;102958.88;;;5.93;55.87
76868;BME280;66168;45.478;11.060;2023-02-13T07:39:14;102961.41;;;6.04;55.83
76868;BME280;66168;45.478;11.060;2023-02-13T07:41:40;102965.77;;;6.14;55.77
76868;BME280;66168;45.478;11.060;2023-02-13T07:44:07;102963.19;;;6.21;55.82
76868;BME280;66168;45.478;11.060;2023-02-13T07:46:34;102958.98;;;6.30;55.82
76868;BME280;66168;45.478;11.060;2023-02-13T07:49:01;102956.52;;;6.39;55.81
76868;BME280;66168;45.478;11.060;2023-02-13T07:51:28;102953.66;;;6.48;55.76
76868;BME280;66168;45.478;11.060;2023-02-13T07:53:54;102952.19;;;6.63;55.60
76868;BME280;66168;45.478;11.060;2023-02-13T07:56:23;102950.71;;;6.75;55.36
76868;BME280;66168;45.478;11.060;2023-02-13T07:58:49;102943.61;;;6.88;55.21
76868;BME280;66168;45.478;11.060;2023-02-13T08:01:16;102942.88;;;7.02;55.13
76868;BME280;66168;45.478;11.060;2023-02-13T08:03:46;102950.17;;;7.18;55.09
76868;BME280;66168;45.478;11.060;2023-02-13T08:06:13;102949.67;;;7.33;55.12
76868;BME280;66168;45.478;11.060;2023-02-13T08:08:40;102945.43;;;7.50;54.96
76868;BME280;66168;45.478;11.060;2023-02-13T08:11:25;102943.21;;;7.68;54.77
76868;BME280;66168;45.478;11.060;2023-02-13T08:14:12;102943.12;;;7.90;54.69
76868;BME280;66168;45.478;11.060;2023-02-13T08:16:39;102947.31;;;8.06;54.13
76868;BME280;66168;45.478;11.060;2023-02-13T08:19:05;102943.31;;;8.18;53.97
76868;BME280;66168;45.478;11.060;2023-02-13T08:21:32;102943.08;;;8.32;53.76
76868;BME280;66168;45.478;11.060;2023-02-13T08:24:00;102937.75;;;8.48;53.67
76868;BME280;66168;45.478;11.060;2023-02-13T08:26:30;102942.19;;;8.65;53.24
76868;BME280;66168;45.478;11.060;2023-02-13T08:28:57;102941.30;;;8.78;53.06
76868;BME280;66168;45.478;11.060;2023-02-13T08:31:23;102938.95;;;8.88;52.84
76868;BME280;66168;45.478;11.060;2023-02-13T08:33:50;102935.23;;;8.98;52.51
76868;BME280;66168;45.478;11.060;2023-02-13T08:36:17;102935.52;;;9.09;52.23
76868;BME280;66168;45.478;11.060;2023-02-13T08:38:47;102933.23;;;9.21;52.17
76868;BME280;66168;45.478;11.060;2023-02-13T08:41:14;102937.71;;;9.30;52.13
76868;BME280;66168;45.478;11.060;2023-02-13T08:43:49;102938.70;;;9.42;51.91
76868;BME280;66168;45.478;11.060;2023-02-13T08:46:16;102938.33;;;9.52;51.67
76868;BME280;66168;45.478;11.060;2023-02-13T08:48:43;102939.59;;;9.59;51.24
76868;BME280;66168;45.478;11.060;2023-02-13T08:51:12;102941.61;;;9.65;51.19
76868;BME280;66168;45.478;11.060;2023-02-13T08:53:39;102937.03;;;9.72;51.31
76868;BME280;66168;45.478;11.060;2023-02-13T08:56:08;102937.17;;;9.84;51.04
76868;BME280;66168;45.478;11.060;2023-02-13T08:58:35;102935.02;;;9.98;50.97
76868;BME280;66168;45.478;11.060;2023-02-13T09:01:08;102934.52;;;10.15;50.79
76868;BME280;66168;45.478;11.060;2023-02-13T09:03:35;102930.92;;;10.27;50.66
76868;BME280;66168;45.478;11.060;2023-02-13T09:06:02;102925.25;;;10.43;50.48
76868;BME280;66168;45.478;11.060;2023-02-13T09:08:29;102923.58;;;10.64;50.28
76868;BME280;66168;45.478;11.060;2023-02-13T09:11:00;102922.72;;;10.86;49.85
76868;BME280;66168;45.478;11.060;2023-02-13T09:13:31;102920.31;;;11.02;49.44
76868;BME280;66168;45.478;11.060;2023-02-13T09:16:00;102925.29;;;11.20;48.77
76868;BME280;66168;45.478;11.060;2023-02-13T09:18:27;102920.92;;;11.32;48.92
76868;BME280;66168;45.478;11.060;2023-02-13T09:23:25;102920.03;;;11.68;48.23
76868;BME280;66168;45.478;11.060;2023-02-13T09:25:52;102916.42;;;11.84;48.31
76868;BME280;66168;45.478;11.060;2023-02-13T09:28:19;102922.42;;;12.03;47.50
76868;BME280;66168;45.478;11.060;2023-02-13T09:30:46;102923.17;;;12.05;46.52
76868;BME280;66168;45.478;11.060;2023-02-13T09:33:14;102920.30;;;12.01;46.07
76868;BME280;66168;45.478;11.060;2023-02-13T09:35:41;102918.05;;;12.07;46.96
76868;BME280;66168;45.478;11.060;2023-02-13T09:38:09;102911.27;;;12.19;46.57
76868;BME280;66168;45.478;11.060;2023-02-13T09:40:48;102914.13;;;12.27;46.34
76868;BME280;66168;45.478;11.060;2023-02-13T09:43:28;102919.38;;;12.38;46.42
76868;BME280;66168;45.478;11.060;2023-02-13T09:46:03;102921.88;;;12.51;45.66
76868;BME280;66168;45.478;11.060;2023-02-13T09:48:35;102918.42;;;12.43;45.29
76868;BME280;66168;45.478;11.060;2023-02-13T09:51:04;102917.18;;;12.45;45.98
76868;BME280;66168;45.478;11.060;2023-02-13T09:53:31;102923.14;;;12.60;46.34
76868;BME280;66168;45.478;11.060;2023-02-13T09:56:12;102916.91;;;12.83;46.03
76868;BME280;66168;45.478;11.060;2023-02-13T09:58:42;102911.85;;;13.00;45.34
76868;BME280;66168;45.478;11.060;2023-02-13T10:01:34;102914.21;;;13.05;44.67
76868;BME280;66168;45.478;11.060;2023-02-13T10:07:14;102909.31;;;12.98;44.63
76868;BME280;66168;45.478;11.060;2023-02-13T10:10:02;102901.91;;;13.07;43.93
76868;BME280;66168;45.478;11.060;2023-02-13T10:12:53;102906.80;;;13.22;43.85
76868;BME280;66168;45.478;11.060;2023-02-13T10:15:36;102911.40;;;13.38;43.34
76868;BME280;66168;45.478;11.060;2023-02-13T10:18:16;102907.79;;;13.40;43.15
76868;BME280;66168;45.478;11.060;2023-02-13T10:20:51;102905.92;;;13.49;43.64
76868;BME280;66168;45.478;11.060;2023-02-13T10:26:03;102913.67;;;13.75;43.00
76868;BME280;66168;45.478;11.060;2023-02-13T10:28:35;102908.78;;;13.91;42.10
76868;BME280;66168;45.478;11.060;2023-02-13T10:31:07;102898.86;;;14.00;42.17
76868;BME280;66168;45.478;11.060;2023-02-13T10:33:42;102899.73;;;14.06;42.24
76868;BME280;66168;45.478;11.060;2023-02-13T10:36:18;102899.67;;;14.10;41.25
76868;BME280;66168;45.478;11.060;2023-02-13T10:49:30;102877.70;;;14.09;41.72
76868;BME280;66168;45.478;11.060;2023-02-13T10:52:21;102864.21;;;14.17;41.90
76868;BME280;66168;45.478;11.060;2023-02-13T11:00:36;102859.46;;;14.09;41.72
76868;BME280;66168;45.478;11.060;2023-02-13T11:03:04;102855.31;;;14.21;41.60
76868;BME280;66168;45.478;11.060;2023-02-13T11:05:40;102861.53;;;14.29;41.68
76868;BME280;66168;45.478;11.060;2023-02-13T11:08:23;102858.05;;;14.36;41.12
76868;BME280;66168;45.478;11.060;2023-02-13T11:10:51;102854.48;;;14.34;41.28
76868;BME280;66168;45.478;11.060;2023-02-13T11:13:23;102846.56;;;14.40;41.46
76868;BME280;66168;45.478;11.060;2023-02-13T11:16:17;102845.30;;;14.51;41.32
76868;BME280;66168;45.478;11.060;2023-02-13T11:18:48;102844.31;;;14.50;41.10
76868;BME280;66168;45.478;11.060;2023-02-13T11:21:20;102838.98;;;14.50;41.28
76868;BME280;66168;45.478;11.060;2023-02-13T11:23:52;102837.67;;;14.56;41.32
76868;BME280;66168;45.478;11.060;2023-02-13T11:26:30;102842.89;;;14.63;41.21
76868;BME280;66168;45.478;11.060;2023-02-13T11:29:05;102839.25;;;14.65;40.98
76868;BME280;66168;45.478;11.060;2023-02-13T11:31:41;102831.61;;;14.67;40.98
76868;BME280;66168;45.478;11.060;2023-02-13T11:34:37;102838.64;;;14.67;41.12
76868;BME280;66168;45.478;11.060;2023-02-13T11:39:53;102830.13;;;14.82;41.03
76868;BME280;66168;45.478;11.060;2023-02-13T11:45:21;102818.02;;;14.86;41.07
76868;BME280;66168;45.478;11.060;2023-02-13T11:47:48;102821.80;;;14.85;40.87
76868;BME280;66168;45.478;11.060;2023-02-13T11:50:29;102816.96;;;14.87;41.25
76868;BME280;66168;45.478;11.060;2023-02-13T11:53:00;102811.68;;;14.98;41.41
76868;BME280;66168;45.478;11.060;2023-02-13T11:55:33;102809.54;;;15.06;41.18
76868;BME280;66168;45.478;11.060;2023-02-13T11:58:04;102806.73;;;15.11;41.08
76868;BME280;66168;45.478;11.060;2023-02-13T12:00:47;102807.86;;;15.08;40.81
76868;BME280;66168;45.478;11.060;2023-02-13T12:06:13;102804.12;;;15.10;41.22
76868;BME280;66168;45.478;11.060;2023-02-13T12:08:44;102803.42;;;15.13;41.03
76868;BME280;66168;45.478;11.060;2023-02-13T12:13:58;102793.76;;;15.01;40.61
76868;BME280;66168;45.478;11.060;2023-02-13T12:16:35;102790.84;;;14.94;41.15
76868;BME280;66168;45.478;11.060;2023-02-13T12:19:06;102792.89;;;14.95;41.39
76868;BME280;66168;45.478;11.060;2023-02-13T12:22:04;102788.88;;;14.96;41.40
76868;BME280;66168;45.478;11.060;2023-02-13T12:39:36;102765.49;;;15.10;41.48
76868;BME280;66168;45.478;11.060;2023-02-13T12:42:30;102761.27;;;15.17;41.62
76868;BME280;66168;45.478;11.060;2023-02-13T12:48:15;102753.20;;;15.38;41.21
76868;BME280;66168;45.478;11.060;2023-02-13T12:53:42;102752.91;;;15.30;41.27
76868;BME280;66168;45.478;11.060;2023-02-13T13:12:44;102731.55;;;14.76;42.39
76868;BME280;66168;45.478;11.060;2023-02-13T13:20:54;102730.10;;;14.76;42.31
76868;BME280;66168;45.478;11.060;2023-02-13T13:28:34;102727.06;;;14.57;42.56
76868;BME280;66168;45.478;11.060;2023-02-13T13:31:02;102724.80;;;14.51;42.59
76868;BME280;66168;45.478;11.060;2023-02-13T13:33:32;102722.51;;;14.44;42.71
76868;BME280;66168;45.478;11.060;2023-02-13T13:39:05;102720.94;;;14.35;42.87
76868;BME280;66168;45.478;11.060;2023-02-13T13:47:23;102716.11;;;14.18;43.18
76868;BME280;66168;45.478;11.060;2023-02-13T13:49:56;102714.79;;;14.02;43.17
76868;BME280;66168;45.478;11.060;2023-02-13T13:52:26;102716.82;;;13.91;43.43
76868;BME280;66168;45.478;11.060;2023-02-13T13:54:55;102711.61;;;13.84;43.44
76868;BME280;66168;45.478;11.060;2023-02-13T13:58:19;102711.64;;;13.74;43.51
76868;BME280;66168;45.478;11.060;2023-02-13T14:02:46;102707.73;;;13.48;44.23
76868;BME280;66168;45.478;11.060;2023-02-13T14:05:32;102708.48;;;13.43;44.71
76868;BME280;66168;45.478;11.060;2023-02-13T14:08:02;102704.94;;;13.40;44.26
76868;BME280;66168;45.478;11.060;2023-02-13T14:13:01;102700.50;;;13.28;44.36
76868;BME280;66168;45.478;11.060;2023-02-13T14:23:32;102695.86;;;13.19;44.96
76868;BME280;66168;45.478;11.060;2023-02-13T14:31:27;102687.45;;;13.17;44.78
76868;BME280;66168;45.478;11.060;2023-02-13T14:37:01;102691.58;;;13.15;44.94
76868;BME280;66168;45.478;11.060;2023-02-13T14:39:29;102693.35;;;13.13;44.99
76868;BME280;66168;45.478;11.060;2023-02-13T14:41:59;102694.05;;;13.13;44.99
76868;BME280;66168;45.478;11.060;2023-02-13T14:44:52;102693.29;;;13.14;45.02
76868;BME280;66168;45.478;11.060;2023-02-13T14:47:28;102691.73;;;13.13;44.93
76868;BME280;66168;45.478;11.060;2023-02-13T14:49:57;102686.73;;;13.12;45.17
76868;BME280;66168;45.478;11.060;2023-02-13T14:52:28;102683.45;;;13.11;45.02
76868;BME280;66168;45.478;11.060;2023-02-13T14:55:04;102687.05;;;13.08;45.10
76868;BME280;66168;45.478;11.060;2023-02-13T14:57:46;102688.16;;;13.05;45.11
76868;BME280;66168;45.478;11.060;2023-02-13T15:00:43;102684.20;;;13.02;45.23
76868;BME280;66168;45.478;11.060;2023-02-13T15:03:30;102685.48;;;13.00;45.50
76868;BME280;66168;45.478;11.060;2023-02-13T15:06:04;102682.56;;;12.97;45.42
76868;BME280;66168;45.478;11.060;2023-02-13T15:08:36;102679.59;;;12.94;45.20
76868;BME280;66168;45.478;11.060;2023-02-13T15:11:04;102676.52;;;12.91;45.21
76868;BME280;66168;45.478;11.060;2023-02-13T15:13:50;102679.23;;;12.89;45.51
76868;BME280;66168;45.478;11.060;2023-02-13T15:16:17;102679.73;;;12.85;45.54
76868;BME280;66168;45.478;11.060;2023-02-13T15:18:49;102677.23;;;12.83;45.50
76868;BME280;66168;45.478;11.060;2023-02-13T15:21:22;102678.89;;;12.79;45.56
76868;BME280;66168;45.478;11.060;2023-02-13T15:23:58;102682.12;;;12.75;45.56
76868;BME280;66168;45.478;11.060;2023-02-13T15:26:25;102677.45;;;12.72;45.67
76868;BME280;66168;45.478;11.060;2023-02-13T15:29:02;102677.26;;;12.70;45.75
76868;BME280;66168;45.478;11.060;2023-02-13T15:31:32;102673.80;;;12.66;45.93
76868;BME280;66168;45.478;11.060;2023-02-13T15:34:00;102677.65;;;12.63;46.13
76868;BME280;66168;45.478;11.060;2023-02-13T15:36:34;102674.25;;;12.62;46.08
76868;BME280;66168;45.478;11.060;2023-02-13T15:39:06;102674.11;;;12.59;46.12